Time;durP1;ratioP1;P1;durP2;ratioP2;P2;SDS_P1;SDS_P2;PMS_P1;PMS_P2;Temp;Humidity;BMP_temperature;BMP_pressure;BME280_temperature;BME280_humidity;BME280_pressure;Samples;Min_cycle;Max_cycle;Signal;HPM_P1;HPM_P2
2022/10/12 00:00:46;;;;;;;3.58;2.90;;;17.00;60.80;;;;;;5052515;28;20167;-65
2022/10/12 00:03:12;;;;;;;3.92;2.67;;;17.00;60.60;;;;;;5051681;28;20534;-65
2022/10/12 00:05:37;;;;;;;4.05;2.78;;;17.00;60.60;;;;;;5052697;28;20179;-65
2022/10/12 00:08:03;;;;;;;4.65;3.03;;;17.00;60.80;;;;;;5052195;28;20227;-65
2022/10/12 00:10:28;;;;;;;4.50;2.97;;;17.00;60.80;;;;;;5051974;28;20175;-66
2022/10/12 00:12:54;;;;;;;3.38;2.70;;;17.00;60.60;;;;;;5052502;28;20638;-64
2022/10/12 00:15:19;;;;;;;3.47;2.47;;;17.00;60.80;;;;;;5052094;28;20175;-64
2022/10/12 00:17:45;;;;;;;5.18;3.10;;;17.00;60.80;;;;;;5051862;28;20167;-64
2022/10/12 00:20:11;;;;;;;5.20;2.78;;;17.00;60.60;;;;;;5052149;28;20174;-64
2022/10/12 00:22:36;;;;;;;5.07;3.20;;;17.00;60.70;;;;;;5052409;28;20171;-64
2022/10/12 00:25:02;;;;;;;3.55;2.80;;;16.90;60.60;;;;;;5051525;28;20175;-64
2022/10/12 00:27:27;;;;;;;4.40;2.80;;;16.90;60.60;;;;;;5052411;28;20573;-64
2022/10/12 00:29:53;;;;;;;3.42;2.63;;;17.00;60.70;;;;;;5052216;28;20178;-65
2022/10/12 00:32:19;;;;;;;6.30;3.50;;;16.90;60.50;;;;;;5051146;28;20225;-64
2022/10/12 00:34:44;;;;;;;4.28;2.70;;;17.00;60.60;;;;;;5052244;28;20183;-65
2022/10/12 00:37:10;;;;;;;4.80;2.47;;;16.90;60.50;;;;;;5051131;28;20178;-64
2022/10/12 00:39:35;;;;;;;3.75;2.83;;;16.90;60.70;;;;;;5052532;28;20179;-64
2022/10/12 00:42:01;;;;;;;5.70;2.45;;;16.90;60.60;;;;;;5052178;28;20183;-64
2022/10/12 00:44:36;;;;;;;5.03;2.58;;;16.90;60.50;;;;;;5052222;28;20881;-65
2022/10/12 00:47:14;;;;;;;2.60;2.15;;;16.90;60.60;;;;;;5056158;28;20262;-65
2022/10/12 00:49:40;;;;;;;3.75;2.65;;;16.90;60.50;;;;;;5055263;28;20191;-64
2022/10/12 00:52:07;;;;;;;4.60;2.78;;;16.90;60.50;;;;;;5036698;28;20210;-65
2022/10/12 00:54:35;;;;;;;4.43;3.30;;;16.90;60.50;;;;;;5054099;28;20179;-65
2022/10/12 00:57:02;;;;;;;3.00;2.40;;;16.90;60.40;;;;;;5054624;28;20225;-65
2022/10/12 00:59:31;;;;;;;3.30;1.92;;;16.90;60.50;;;;;;5054104;28;20186;-65
2022/10/12 01:01:56;;;;;;;2.83;2.25;;;16.90;60.40;;;;;;5054343;28;20183;-65
2022/10/12 01:04:22;;;;;;;4.05;2.40;;;16.80;61.20;;;;;;5055030;28;20186;-65
2022/10/12 01:06:48;;;;;;;4.28;2.60;;;16.80;60.50;;;;;;5053994;28;20229;-65
2022/10/12 01:09:13;;;;;;;3.60;2.50;;;16.90;60.50;;;;;;5055483;28;20230;-65
2022/10/12 01:11:39;;;;;;;3.40;2.40;;;16.80;60.40;;;;;;5054663;28;20175;-65
2022/10/12 01:14:04;;;;;;;4.82;2.95;;;16.80;60.40;;;;;;5054917;28;20186;-64
2022/10/12 01:16:56;;;;;;;2.78;2.08;;;16.80;60.40;;;;;;5054843;28;20535;-64
2022/10/12 01:19:29;;;;;;;2.95;2.30;;;16.80;60.40;;;;;;5051171;28;20187;-64
2022/10/12 01:22:01;;;;;;;3.67;2.65;;;16.80;60.40;;;;;;5055418;28;20203;-64
2022/10/12 01:24:30;;;;;;;4.32;2.70;;;16.80;60.40;;;;;;5054409;28;20637;-64
2022/10/12 01:27:04;;;;;;;2.35;2.15;;;16.80;60.40;;;;;;5053454;28;20245;-64
2022/10/12 01:30:04;;;;;;;4.15;2.65;;;16.80;60.40;;;;;;5038048;28;20250;-65
2022/10/12 01:32:30;;;;;;;4.22;2.15;;;16.80;60.40;;;;;;5054227;28;20179;-65
2022/10/12 01:35:45;;;;;;;3.72;1.90;;;16.80;60.30;;;;;;5053544;28;20231;-64
2022/10/12 01:38:35;;;;;;;2.30;2.00;;;16.80;60.40;;;;;;5052189;28;20260;-64
2022/10/12 01:41:12;;;;;;;2.60;2.40;;;16.70;60.30;;;;;;5054403;28;20198;-64
2022/10/12 01:43:41;;;;;;;3.03;1.98;;;16.80;60.30;;;;;;5053979;28;20186;-64
2022/10/12 01:46:27;;;;;;;2.40;1.90;;;16.80;60.30;;;;;;5054897;28;20632;-65
2022/10/12 01:48:53;;;;;;;3.50;1.92;;;16.70;60.30;;;;;;5054291;28;20289;-65
2022/10/12 01:51:36;;;;;;;3.03;2.10;;;16.70;60.30;;;;;;5053579;28;20653;-65
2022/10/12 01:54:04;;;;;;;2.95;2.22;;;16.70;60.20;;;;;;5053771;28;20223;-65
2022/10/12 01:56:51;;;;;;;5.28;2.13;;;16.70;60.20;;;;;;5053785;28;20174;-65
2022/10/12 01:59:28;;;;;;;2.30;1.77;;;16.70;60.20;;;;;;5053385;28;20590;-65
2022/10/12 02:01:58;;;;;;;3.13;1.90;;;16.70;60.20;;;;;;5037684;28;20202;-65
2022/10/12 02:04:46;;;;;;;2.80;1.98;;;16.70;60.20;;;;;;5054754;28;20179;-65
2022/10/12 02:07:37;;;;;;;3.42;2.03;;;16.70;60.30;;;;;;5053316;28;20227;-65
2022/10/12 02:10:03;;;;;;;2.95;1.90;;;16.70;60.20;;;;;;5052666;28;20191;-65
2022/10/12 02:12:29;;;;;;;3.03;2.33;;;16.70;60.20;;;;;;5054815;28;20175;-65
2022/10/12 02:14:56;;;;;;;2.17;1.85;;;16.70;60.30;;;;;;5037041;28;20201;-64
2022/10/12 02:17:22;;;;;;;3.45;2.67;;;16.70;60.20;;;;;;5052961;28;20254;-64
2022/10/12 02:19:58;;;;;;;3.20;1.90;;;16.70;60.30;;;;;;5054793;28;20608;-64
2022/10/12 02:22:25;;;;;;;1.90;1.70;;;16.60;60.10;;;;;;5054556;28;20265;-64
2022/10/12 02:24:51;;;;;;;4.45;1.95;;;16.70;60.20;;;;;;5052896;28;20179;-65
2022/10/12 02:27:17;;;;;;;3.30;1.90;;;16.70;60.20;;;;;;5052912;28;20184;-65
2022/10/12 02:29:43;;;;;;;3.83;1.98;;;16.70;60.10;;;;;;5035903;28;20191;-65
2022/10/12 02:32:20;;;;;;;3.30;1.80;;;16.60;60.10;;;;;;5036484;28;20207;-64
2022/10/12 02:35:07;;;;;;;5.00;2.17;;;16.60;60.20;;;;;;5054403;28;20178;-64
2022/10/12 02:37:43;;;;;;;2.92;1.55;;;16.60;60.10;;;;;;5038464;28;20175;-64
2022/10/12 02:40:16;;;;;;;3.38;2.00;;;16.60;60.10;;;;;;5052712;28;20232;-64
2022/10/12 02:42:46;;;;;;;2.45;1.52;;;16.60;60.20;;;;;;5054315;28;20176;-65
2022/10/12 02:45:11;;;;;;;2.58;1.63;;;16.60;60.10;;;;;;5053062;28;20266;-64
2022/10/12 02:47:37;;;;;;;3.45;1.98;;;16.60;60.20;;;;;;5052988;28;20737;-64
2022/10/12 02:50:03;;;;;;;2.55;1.90;;;16.60;60.20;;;;;;5036089;28;20614;-64
2022/10/12 02:52:29;;;;;;;2.63;1.67;;;16.60;60.10;;;;;;5051955;28;20178;-64
2022/10/12 02:54:55;;;;;;;3.47;1.85;;;16.60;60.10;;;;;;5052724;28;20211;-64
2022/10/12 02:57:20;;;;;;;2.05;1.73;;;16.60;60.10;;;;;;5052443;28;20226;-64
2022/10/12 02:59:46;;;;;;;2.67;1.90;;;16.60;60.20;;;;;;5052946;28;20175;-65
2022/10/12 03:02:11;;;;;;;2.95;1.90;;;16.60;60.20;;;;;;5053788;28;20171;-65
2022/10/12 03:04:37;;;;;;;3.90;1.92;;;16.60;60.20;;;;;;5053732;28;20514;-65
2022/10/12 03:07:03;;;;;;;2.55;1.67;;;16.60;60.10;;;;;;5052573;28;20223;-65
2022/10/12 03:09:28;;;;;;;3.10;1.90;;;16.60;60.20;;;;;;5052897;28;20301;-65
2022/10/12 03:11:54;;;;;;;1.73;1.60;;;16.60;60.20;;;;;;5052915;28;20683;-65
2022/10/12 03:14:20;;;;;;;3.22;2.25;;;16.60;60.20;;;;;;5053207;28;20175;-64
2022/10/12 03:16:46;;;;;;;2.25;1.65;;;16.60;60.20;;;;;;5053756;28;20179;-64
2022/10/12 03:19:12;;;;;;;2.80;1.85;;;16.60;60.20;;;;;;5052422;28;20987;-64
2022/10/12 03:21:37;;;;;;;3.60;1.80;;;16.50;60.20;;;;;;5053539;28;20258;-64
2022/10/12 03:24:03;;;;;;;2.88;2.00;;;16.50;60.20;;;;;;5053263;28;20182;-64
2022/10/12 03:26:29;;;;;;;2.90;1.65;;;16.50;60.10;;;;;;5052758;28;20182;-64
2022/10/12 03:28:54;;;;;;;2.60;1.75;;;16.50;60.10;;;;;;5053025;28;20661;-64
2022/10/12 03:31:20;;;;;;;3.58;1.80;;;16.50;60.20;;;;;;5052956;28;20175;-64
2022/10/12 03:33:45;;;;;;;3.35;1.80;;;16.50;60.20;;;;;;5052367;28;20170;-64
2022/10/12 03:36:11;;;;;;;2.78;1.45;;;16.50;60.10;;;;;;5053043;28;20224;-64
2022/10/12 03:38:36;;;;;;;3.38;1.90;;;16.50;60.10;;;;;;5053402;28;20216;-64
2022/10/12 03:41:02;;;;;;;1.70;1.55;;;16.50;60.20;;;;;;5052331;28;20171;-64
2022/10/12 03:43:27;;;;;;;2.65;1.85;;;16.50;60.20;;;;;;5053142;28;20256;-64
2022/10/12 03:45:53;;;;;;;3.00;2.03;;;16.50;60.20;;;;;;5052924;28;20261;-64
2022/10/12 03:48:18;;;;;;;3.17;2.10;;;16.50;60.20;;;;;;5051894;28;20257;-65
2022/10/12 03:50:48;;;;;;;2.30;1.80;;;16.50;60.20;;;;;;5052888;28;20190;-64
2022/10/12 03:53:13;;;;;;;2.45;1.50;;;16.50;60.10;;;;;;5052730;28;20179;-64
2022/10/12 03:55:39;;;;;;;3.17;1.70;;;16.50;60.20;;;;;;5052178;28;20178;-64
2022/10/12 03:58:04;;;;;;;4.10;1.88;;;16.40;60.20;;;;;;5052600;28;20181;-64
2022/10/12 04:00:30;;;;;;;2.90;1.95;;;16.50;60.20;;;;;;5053100;28;20258;-65
2022/10/12 04:02:55;;;;;;;2.25;1.70;;;16.50;60.20;;;;;;5052306;28;20195;-64
2022/10/12 04:05:21;;;;;;;3.20;1.83;;;16.40;60.10;;;;;;5052703;28;20179;-65
2022/10/12 04:07:46;;;;;;;3.92;1.65;;;16.40;60.10;;;;;;5052645;28;20704;-65
2022/10/12 04:10:12;;;;;;;3.55;2.13;;;16.40;60.10;;;;;;5051846;28;20213;-65
2022/10/12 04:12:37;;;;;;;3.83;1.88;;;16.40;60.10;;;;;;5052676;28;20175;-64
2022/10/12 04:15:03;;;;;;;2.15;1.38;;;16.40;60.10;;;;;;5052353;28;20175;-64
2022/10/12 04:17:29;;;;;;;2.97;2.03;;;16.40;60.10;;;;;;5052161;28;20199;-64
2022/10/12 04:19:54;;;;;;;2.13;1.60;;;16.40;60.10;;;;;;5052360;28;20637;-64
2022/10/12 04:22:20;;;;;;;2.03;1.83;;;16.40;60.10;;;;;;5051860;28;20205;-65
2022/10/12 04:24:45;;;;;;;2.42;1.60;;;16.40;60.10;;;;;;5052691;28;20190;-64
2022/10/12 04:27:11;;;;;;;2.90;1.70;;;16.40;60.10;;;;;;5052350;28;20304;-64
2022/10/12 04:29:37;;;;;;;2.45;1.75;;;16.40;60.10;;;;;;5051851;28;20301;-64
2022/10/12 04:32:02;;;;;;;3.72;1.92;;;16.40;60.10;;;;;;5052546;28;20166;-64
2022/10/12 04:34:28;;;;;;;3.70;1.95;;;16.40;60.10;;;;;;5052740;28;20206;-64
2022/10/12 04:36:53;;;;;;;1.67;1.40;;;16.40;60.10;;;;;;5051971;28;20195;-64
2022/10/12 04:39:19;;;;;;;2.80;1.58;;;16.40;60.10;;;;;;5052206;28;20186;-64
2022/10/12 04:41:44;;;;;;;1.45;1.35;;;16.40;60.10;;;;;;5052557;28;20175;-64
2022/10/12 04:44:10;;;;;;;2.85;1.50;;;16.30;60.10;;;;;;5051232;28;20183;-64
2022/10/12 04:46:35;;;;;;;2.38;1.70;;;16.30;60.10;;;;;;5051296;28;20175;-64
2022/10/12 04:49:01;;;;;;;1.80;1.52;;;16.30;60.10;;;;;;5051138;28;20217;-64
2022/10/12 04:51:26;;;;;;;2.83;1.80;;;16.40;60.10;;;;;;5051085;28;20179;-64
2022/10/12 04:53:52;;;;;;;2.50;1.60;;;16.30;60.10;;;;;;5052395;28;20182;-64
2022/10/12 04:56:18;;;;;;;2.85;1.75;;;16.30;60.10;;;;;;5051942;28;20551;-64
2022/10/12 04:58:43;;;;;;;1.95;1.60;;;16.30;60.10;;;;;;5051480;28;20642;-65
2022/10/12 05:01:09;;;;;;;2.65;1.63;;;16.30;60.00;;;;;;5052121;28;20285;-65
2022/10/12 05:03:34;;;;;;;2.45;1.60;;;16.30;60.10;;;;;;5052395;28;20171;-65
2022/10/12 05:06:00;;;;;;;3.05;2.00;;;16.30;60.00;;;;;;5051413;28;20542;-65
2022/10/12 05:08:25;;;;;;;2.47;1.77;;;16.30;60.10;;;;;;5052160;28;20227;-67
2022/10/12 05:10:51;;;;;;;1.85;1.45;;;16.30;60.00;;;;;;5052181;28;20168;-67
2022/10/12 05:13:16;;;;;;;2.42;1.40;;;16.30;60.10;;;;;;5051207;28;20179;-64
2022/10/12 05:15:42;;;;;;;1.70;1.60;;;16.30;60.10;;;;;;5052068;28;20175;-64
2022/10/12 05:18:07;;;;;;;2.05;1.38;;;16.30;60.10;;;;;;5051402;28;20183;-63
2022/10/12 05:20:33;;;;;;;1.67;1.58;;;16.30;60.10;;;;;;5051484;28;20175;-64
2022/10/12 05:22:59;;;;;;;2.13;1.70;;;16.30;60.00;;;;;;5051522;28;20249;-64
2022/10/12 05:25:24;;;;;;;1.90;1.67;;;16.20;59.90;;;;;;5051909;28;20167;-64
2022/10/12 05:27:50;;;;;;;2.60;1.50;;;16.30;60.00;;;;;;5051225;28;20211;-64
2022/10/12 05:30:15;;;;;;;3.20;1.80;;;16.30;60.10;;;;;;5051674;28;20221;-64
2022/10/12 05:32:43;;;;;;;3.63;2.15;;;16.20;60.00;;;;;;5053762;28;20175;-64
2022/10/12 05:35:09;;;;;;;2.55;1.77;;;16.30;60.10;;;;;;5055271;28;20269;-64
2022/10/12 05:37:34;;;;;;;2.70;2.08;;;16.30;60.10;;;;;;5055517;28;20637;-64
2022/10/12 05:40:00;;;;;;;1.80;1.67;;;16.20;59.90;;;;;;5054625;28;20171;-64
2022/10/12 05:42:25;;;;;;;3.35;1.88;;;16.20;59.90;;;;;;5055198;28;20183;-64
2022/10/12 05:44:51;;;;;;;2.70;1.88;;;16.20;60.00;;;;;;5055404;28;20172;-64
2022/10/12 05:47:16;;;;;;;2.92;1.85;;;16.20;60.00;;;;;;5054304;28;20601;-64
2022/10/12 05:49:42;;;;;;;1.75;1.65;;;16.20;59.90;;;;;;5054994;28;20578;-65
2022/10/12 05:52:07;;;;;;;3.25;2.00;;;16.20;59.90;;;;;;5055011;28;20175;-64
2022/10/12 05:54:33;;;;;;;2.17;1.70;;;16.20;59.90;;;;;;5054334;28;20179;-65
2022/10/12 05:56:58;;;;;;;2.45;1.98;;;16.20;59.90;;;;;;5054740;28;20175;-65
2022/10/12 05:59:24;;;;;;;2.47;1.92;;;16.20;59.90;;;;;;5054818;28;20228;-64
2022/10/12 06:01:49;;;;;;;2.65;1.85;;;16.20;59.90;;;;;;5054007;28;20217;-65
2022/10/12 06:04:15;;;;;;;3.70;2.22;;;16.20;59.90;;;;;;5054490;28;20650;-65
2022/10/12 06:06:40;;;;;;;2.58;2.10;;;16.20;60.00;;;;;;5054945;28;20206;-65
2022/10/12 06:09:06;;;;;;;3.13;2.00;;;16.20;59.90;;;;;;5053739;28;20211;-64
2022/10/12 06:11:32;;;;;;;3.78;2.33;;;16.30;59.90;;;;;;5054636;28;20171;-65
2022/10/12 06:13:57;;;;;;;1.88;1.75;;;16.30;59.60;;;;;;5054491;28;20266;-64
2022/10/12 06:16:23;;;;;;;2.25;2.03;;;16.40;59.60;;;;;;5053791;28;20646;-64
2022/10/12 06:18:48;;;;;;;4.75;2.15;;;16.50;59.60;;;;;;5054717;28;20179;-64
2022/10/12 06:21:14;;;;;;;3.65;2.30;;;16.50;59.50;;;;;;5054232;28;20670;-64
2022/10/12 06:23:39;;;;;;;2.88;2.20;;;16.60;59.50;;;;;;5053782;28;20175;-64
2022/10/12 06:26:05;;;;;;;2.45;1.88;;;16.60;59.40;;;;;;5054194;28;20194;-64
2022/10/12 06:28:30;;;;;;;2.35;1.95;;;16.60;59.40;;;;;;5054215;28;20241;-64
2022/10/12 06:30:57;;;;;;;2.22;1.80;;;16.60;59.30;;;;;;5053720;28;20172;-65
2022/10/12 06:33:23;;;;;;;4.40;2.25;;;16.60;59.30;;;;;;5054479;28;20262;-64
2022/10/12 06:35:49;;;;;;;2.90;2.20;;;16.60;59.40;;;;;;5053881;28;20640;-64
2022/10/12 06:38:14;;;;;;;3.33;2.45;;;16.70;59.40;;;;;;5053834;28;20179;-64
2022/10/12 06:40:40;;;;;;;3.15;2.10;;;16.80;59.30;;;;;;5054257;28;20191;-64
2022/10/12 06:43:05;;;;;;;3.75;2.08;;;16.90;59.20;;;;;;5053399;28;20179;-64
2022/10/12 06:45:31;;;;;;;3.90;1.75;;;17.00;59.10;;;;;;5053884;28;20163;-64
2022/10/12 06:47:57;;;;;;;3.45;1.75;;;17.20;58.90;;;;;;5054096;28;20219;-65
2022/10/12 06:50:23;;;;;;;2.92;2.22;;;17.30;58.70;;;;;;5053484;28;20649;-64
2022/10/12 06:52:48;;;;;;;2.97;2.28;;;17.50;58.50;;;;;;5054136;28;20186;-65
2022/10/12 06:55:14;;;;;;;2.65;2.03;;;17.80;58.10;;;;;;5053503;28;20182;-65
2022/10/12 06:57:39;;;;;;;2.22;2.03;;;17.90;57.70;;;;;;5052741;28;20175;-65
2022/10/12 07:00:06;;;;;;;2.63;1.80;;;18.10;57.40;;;;;;5053664;28;20706;-65
2022/10/12 07:02:32;;;;;;;2.38;1.80;;;18.20;57.10;;;;;;5053909;28;20198;-64
2022/10/12 07:04:57;;;;;;;1.95;1.52;;;18.40;56.90;;;;;;5053018;28;20565;-65
2022/10/12 07:07:23;;;;;;;2.80;2.00;;;18.40;56.60;;;;;;5053774;28;20243;-66
2022/10/12 07:09:48;;;;;;;2.13;1.92;;;18.50;56.50;;;;;;5053382;28;20364;-67
2022/10/12 07:12:14;;;;;;;2.25;1.80;;;18.50;56.40;;;;;;5052770;28;20203;-65
2022/10/12 07:14:39;;;;;;;2.05;1.85;;;18.50;56.40;;;;;;5053702;28;20706;-64
2022/10/12 07:17:05;;;;;;;1.92;1.58;;;18.40;56.50;;;;;;5053451;28;20175;-64
2022/10/12 07:19:30;;;;;;;2.05;1.85;;;18.30;56.50;;;;;;5053020;28;20171;-64
2022/10/12 07:21:56;;;;;;;2.65;2.22;;;18.20;56.60;;;;;;5053611;28;20305;-64
2022/10/12 07:24:21;;;;;;;1.88;1.50;;;18.10;56.80;;;;;;5053341;28;20220;-64
2022/10/12 07:26:48;;;;;;;3.05;1.98;;;18.10;57.00;;;;;;5052698;28;20167;-64
2022/10/12 07:29:14;;;;;;;3.53;1.70;;;18.00;57.30;;;;;;5052919;28;20215;-64
2022/10/12 07:31:41;;;;;;;2.08;1.70;;;17.90;57.20;;;;;;5053509;28;20181;-64
2022/10/12 07:34:06;;;;;;;1.95;1.70;;;17.90;57.40;;;;;;5052427;28;20183;-64
2022/10/12 07:36:32;;;;;;;3.53;1.63;;;17.80;57.60;;;;;;5053424;28;20285;-64
2022/10/12 07:38:57;;;;;;;2.65;1.70;;;17.80;57.80;;;;;;5052760;28;20186;-64
2022/10/12 07:41:23;;;;;;;3.70;1.90;;;17.70;57.70;;;;;;5052454;28;20525;-64
2022/10/12 07:43:53;;;;;;;2.53;1.90;;;17.70;57.70;;;;;;5053182;28;20171;-67
2022/10/12 07:46:19;;;;;;;2.85;1.90;;;17.60;57.90;;;;;;5052103;28;20198;-64
2022/10/12 07:48:44;;;;;;;2.60;1.85;;;17.70;58.10;;;;;;5053104;28;20230;-64
2022/10/12 07:51:10;;;;;;;2.45;1.58;;;17.70;58.20;;;;;;5052798;28;20259;-64
2022/10/12 07:53:36;;;;;;;3.13;2.00;;;17.70;58.20;;;;;;5052233;28;20266;-64
2022/10/12 07:56:04;;;;;;;2.15;1.80;;;17.60;58.30;;;;;;5052459;28;20175;-64
2022/10/12 07:58:29;;;;;;;2.03;1.83;;;17.60;58.40;;;;;;5053147;28;20250;-65
2022/10/12 08:00:55;;;;;;;2.92;1.90;;;17.60;58.50;;;;;;5051973;28;20748;-65
2022/10/12 08:03:20;;;;;;;3.38;1.80;;;17.60;58.60;;;;;;5052618;28;20258;-64
2022/10/12 08:05:46;;;;;;;2.72;1.85;;;17.60;58.70;;;;;;5052896;28;20171;-67
2022/10/12 08:08:13;;;;;;;3.47;2.03;;;17.60;58.80;;;;;;5051297;28;20234;-65
2022/10/12 08:10:38;;;;;;;3.42;1.88;;;17.60;58.70;;;;;;5052352;28;20191;-65
2022/10/12 08:13:04;;;;;;;2.38;2.03;;;17.60;58.70;;;;;;5052443;28;20644;-65
2022/10/12 08:15:29;;;;;;;2.10;1.75;;;17.60;58.70;;;;;;5052226;28;20186;-65
2022/10/12 08:17:55;;;;;;;1.95;1.83;;;17.60;58.70;;;;;;5052797;28;20167;-64
2022/10/12 08:20:20;;;;;;;2.28;1.80;;;17.60;58.80;;;;;;5052414;28;20178;-64
2022/10/12 08:22:46;;;;;;;1.75;1.50;;;17.50;58.80;;;;;;5051969;28;20171;-64
2022/10/12 08:25:11;;;;;;;3.30;2.00;;;17.60;58.80;;;;;;5052354;28;20171;-65
2022/10/12 08:27:37;;;;;;;2.63;2.20;;;17.60;58.80;;;;;;5052749;28;20205;-65
2022/10/12 08:30:04;;;;;;;3.58;2.13;;;17.70;58.80;;;;;;5051711;28;20321;-65
2022/10/12 08:32:31;;;;;;;2.35;1.75;;;17.80;58.70;;;;;;5052484;28;20642;-65
2022/10/12 08:34:56;;;;;;;2.33;1.98;;;17.80;58.60;;;;;;5052446;28;20281;-64
2022/10/12 08:37:22;;;;;;;2.08;1.80;;;17.80;58.70;;;;;;5051834;28;20167;-64
2022/10/12 08:39:47;;;;;;;3.65;1.70;;;17.80;58.80;;;;;;5052644;28;20174;-65
2022/10/12 08:42:35;;;;;;;2.47;1.70;;;17.80;58.80;;;;;;5052276;28;20192;-64
2022/10/12 08:45:06;;;;;;;2.55;1.77;;;17.80;58.70;;;;;;5051124;28;20202;-65
2022/10/12 08:47:52;;;;;;;1.95;1.80;;;17.80;58.80;;;;;;5051940;28;20175;-65
2022/10/12 08:50:23;;;;;;;2.08;1.90;;;17.90;58.90;;;;;;5034896;28;20186;-65
2022/10/12 08:52:53;;;;;;;2.38;2.17;;;17.90;58.90;;;;;;5034814;28;20182;-65
2022/10/12 08:55:31;;;;;;;3.25;2.20;;;18.00;58.80;;;;;;5034440;28;20185;-65
2022/10/12 08:57:57;;;;;;;2.17;1.90;;;18.00;58.90;;;;;;5049919;28;20202;-65
2022/10/12 09:00:23;;;;;;;2.75;2.03;;;17.90;59.00;;;;;;5052345;28;20181;-65
2022/10/12 09:03:12;;;;;;;2.97;2.10;;;17.90;59.80;;;;;;5052387;28;20183;-65
2022/10/12 09:05:56;;;;;;;5.63;2.50;;;17.90;59.30;;;;;;5050156;28;20202;-70
2022/10/12 09:08:30;;;;;;;5.88;2.53;;;17.80;59.50;;;;;;5054152;28;20234;-67
2022/10/12 09:11:16;;;;;;;4.78;2.45;;;17.80;59.80;;;;;;5038128;28;20182;-67
2022/10/12 09:13:50;;;;;;;4.43;2.50;;;17.80;60.10;;;;;;5040041;28;20175;-66
2022/10/12 09:16:22;;;;;;;5.70;2.95;;;17.80;60.40;;;;;;5039066;28;20189;-68
2022/10/12 09:18:56;;;;;;;5.35;2.58;;;17.90;60.80;;;;;;5053708;28;20669;-67
2022/10/12 09:21:23;;;;;;;10.63;3.17;;;17.90;61.10;;;;;;5038126;28;20179;-66
2022/10/12 09:23:49;;;;;;;8.13;2.85;;;18.00;61.30;;;;;;5037581;28;20171;-67
2022/10/12 09:26:15;;;;;;;5.32;2.30;;;18.00;61.40;;;;;;5036981;28;20233;-66
2022/10/12 09:28:45;;;;;;;4.05;2.50;;;18.10;61.70;;;;;;5055841;28;20211;-67
2022/10/12 09:32:01;;;;;;;3.70;2.30;;;18.10;61.80;;;;;;5055543;28;20225;-66
2022/10/12 09:34:27;;;;;;;5.30;2.70;;;18.20;62.10;;;;;;5046406;28;20249;-66
2022/10/12 09:36:54;;;;;;;5.22;2.45;;;18.20;62.10;;;;;;5055687;28;20171;-65
2022/10/12 09:39:22;;;;;;;9.95;3.38;;;18.20;62.10;;;;;;5054709;28;20207;-67
2022/10/12 09:41:48;;;;;;;4.70;2.78;;;18.30;62.30;;;;;;5054263;28;20187;-68
2022/10/12 09:44:55;;;;;;;4.03;2.53;;;18.30;62.10;;;;;;5055127;28;20175;-68
2022/10/12 09:47:22;;;;;;;8.05;2.92;;;18.30;62.00;;;;;;5053362;28;20179;-70
2022/10/12 09:49:51;;;;;;;5.68;3.10;;;18.20;61.90;;;;;;5055104;28;20227;-70
2022/10/12 09:52:21;;;;;;;5.07;2.47;;;18.30;62.20;;;;;;5053599;28;20205;-69
2022/10/12 09:54:57;;;;;;;7.20;3.38;;;18.30;62.10;;;;;;5053504;28;20179;-68
2022/10/12 09:57:29;;;;;;;5.25;2.78;;;18.40;62.10;;;;;;5055352;28;20171;-67
2022/10/12 09:59:55;;;;;;;6.30;2.75;;;18.50;61.80;;;;;;5054351;28;20645;-67
2022/10/12 10:02:25;;;;;;;8.05;3.33;;;18.40;61.80;;;;;;5053649;28;20193;-68
2022/10/12 10:04:51;;;;;;;7.57;3.00;;;18.30;61.80;;;;;;5037288;28;20167;-64
2022/10/12 10:07:29;;;;;;;4.93;2.60;;;18.40;61.60;;;;;;5052727;28;20223;-64
2022/10/12 10:10:10;;;;;;;7.07;3.10;;;18.40;61.20;;;;;;5055115;28;20641;-65
2022/10/12 10:12:41;;;;;;;4.38;2.70;;;18.50;61.10;;;;;;5054802;28;20258;-67
2022/10/12 10:15:26;;;;;;;6.82;3.05;;;18.50;61.30;;;;;;5036808;28;20194;-66
2022/10/12 10:17:59;;;;;;;5.40;2.72;;;18.50;61.40;;;;;;5054361;28;20660;-67
2022/10/12 10:20:38;;;;;;;7.63;2.75;;;18.50;61.50;;;;;;5053841;28;20189;-66
2022/10/12 10:23:04;;;;;;;6.35;2.88;;;18.50;61.50;;;;;;5053562;28;20181;-67
2022/10/12 10:25:29;;;;;;;9.57;3.58;;;18.40;61.50;;;;;;5053725;28;20175;-67
2022/10/12 10:28:20;;;;;;;7.35;3.38;;;18.40;61.40;;;;;;5053847;28;20706;-66
2022/10/12 10:31:01;;;;;;;7.78;3.42;;;18.50;61.30;;;;;;5054744;28;20182;-67
2022/10/12 10:33:27;;;;;;;9.98;3.80;;;18.50;61.20;;;;;;5054651;28;20217;-67
2022/10/12 10:36:05;;;;;;;9.07;3.85;;;18.50;61.00;;;;;;5053780;28;20198;-67
2022/10/12 10:38:32;;;;;;;8.60;3.15;;;18.50;61.00;;;;;;5054658;28;20270;-65
2022/10/12 10:40:58;;;;;;;4.80;3.08;;;18.50;61.10;;;;;;5036083;28;20282;-66
2022/10/12 10:43:26;;;;;;;6.82;3.30;;;18.50;61.10;;;;;;5036079;28;20661;-67
2022/10/12 10:45:57;;;;;;;6.28;3.33;;;18.50;61.10;;;;;;5037023;28;20262;-66
2022/10/12 10:48:26;;;;;;;7.55;3.40;;;18.60;61.00;;;;;;5053199;28;20640;-68
2022/10/12 10:51:02;;;;;;;7.40;3.13;;;18.60;60.90;;;;;;5052197;28;20596;-67
2022/10/12 10:53:43;;;;;;;7.50;3.78;;;18.50;60.70;;;;;;5053234;28;20183;-67
2022/10/12 10:56:16;;;;;;;8.00;3.50;;;18.60;60.70;;;;;;5053248;28;20177;-67
2022/10/12 10:58:53;;;;;;;7.05;3.70;;;18.60;60.50;;;;;;5053680;28;20179;-69
2022/10/12 11:01:42;;;;;;;7.25;3.55;;;18.60;60.50;;;;;;5036122;28;20178;-69
2022/10/12 11:04:13;;;;;;;9.50;3.70;;;18.60;60.50;;;;;;5037286;28;20229;-68
2022/10/12 11:06:43;;;;;;;7.95;3.45;;;18.60;60.60;;;;;;5052761;28;20179;-68
2022/10/12 11:09:37;;;;;;;7.07;3.63;;;18.50;60.60;;;;;;5050972;28;20206;-69
2022/10/12 11:12:09;;;;;;;7.50;3.10;;;18.50;60.90;;;;;;5053001;28;20190;-68
2022/10/12 11:14:41;;;;;;;7.68;3.70;;;18.40;60.80;;;;;;5052750;28;20171;-67
2022/10/12 11:17:29;;;;;;;6.07;3.45;;;18.40;60.90;;;;;;5052142;28;20237;-67
2022/10/12 11:20:05;;;;;;;6.93;3.38;;;18.40;61.00;;;;;;5053636;28;20530;-67
2022/10/12 11:22:39;;;;;;;4.45;3.17;;;18.40;61.00;;;;;;5052653;28;20261;-67
2022/10/12 11:25:11;;;;;;;5.18;3.25;;;18.30;60.90;;;;;;5035632;28;20198;-69
2022/10/12 11:27:38;;;;;;;5.18;3.10;;;18.40;61.00;;;;;;5052615;28;20183;-69
2022/10/12 11:30:11;;;;;;;5.18;3.00;;;18.40;61.00;;;;;;5052428;28;20233;-67
2022/10/12 11:32:39;;;;;;;6.05;3.60;;;18.40;60.70;;;;;;5051947;28;20179;-67
2022/10/12 11:35:05;;;;;;;4.70;3.60;;;18.50;60.70;;;;;;5052017;28;20267;-67
2022/10/12 11:37:58;;;;;;;8.48;3.30;;;18.50;60.60;;;;;;5035529;28;20197;-67
2022/10/12 11:40:45;;;;;;;5.60;3.03;;;18.60;60.50;;;;;;5035917;28;20198;-68
2022/10/12 11:43:14;;;;;;;4.10;3.03;;;18.60;60.40;;;;;;5051478;28;20598;-68
2022/10/12 11:45:42;;;;;;;3.67;2.70;;;18.60;60.30;;;;;;5051446;28;20182;-69
2022/10/12 11:48:34;;;;;;;5.47;3.03;;;18.60;60.30;;;;;;5051700;28;20207;-68
2022/10/12 11:51:00;;;;;;;4.15;2.65;;;18.60;60.40;;;;;;5046299;28;20187;-68
2022/10/12 11:53:52;;;;;;;4.28;2.80;;;18.60;60.40;;;;;;5051396;28;20167;-68
2022/10/12 11:56:26;;;;;;;3.70;3.17;;;18.60;60.40;;;;;;5036410;28;20206;-68
2022/10/12 11:58:57;;;;;;;6.40;3.50;;;18.60;60.50;;;;;;5053046;28;20170;-68
2022/10/12 12:01:38;;;;;;;4.78;3.03;;;18.60;60.50;;;;;;5034552;28;20183;-69
2022/10/12 12:04:31;;;;;;;3.80;2.83;;;18.60;60.50;;;;;;5052595;28;20521;-68
2022/10/12 12:07:00;;;;;;;4.10;3.17;;;18.60;60.50;;;;;;5050750;28;20262;-68
2022/10/12 12:09:31;;;;;;;4.32;2.70;;;18.60;60.60;;;;;;5052856;28;20242;-69
2022/10/12 12:12:08;;;;;;;3.80;3.15;;;18.50;60.80;;;;;;5052464;28;20182;-68
2022/10/12 12:14:33;;;;;;;4.30;2.50;;;18.40;60.80;;;;;;5052317;28;20174;-68
2022/10/12 12:17:17;;;;;;;4.45;3.15;;;18.40;60.80;;;;;;5052719;28;20171;-67
2022/10/12 12:20:03;;;;;;;4.00;2.92;;;18.40;60.80;;;;;;5052927;28;20175;-67
2022/10/12 12:22:29;;;;;;;5.07;3.53;;;18.50;60.80;;;;;;5051741;28;20185;-68
2022/10/12 12:25:05;;;;;;;3.83;2.45;;;18.50;60.60;;;;;;5051800;28;20179;-67
2022/10/12 12:27:54;;;;;;;3.70;2.75;;;18.30;60.70;;;;;;5052064;28;20641;-68
2022/10/12 12:30:32;;;;;;;4.95;2.88;;;18.40;60.90;;;;;;5052491;28;20324;-68
2022/10/12 12:33:19;;;;;;;4.43;3.13;;;18.40;60.80;;;;;;5051210;28;20207;-67
2022/10/12 12:36:12;;;;;;;5.35;3.08;;;18.40;60.80;;;;;;5051081;28;20182;-67
2022/10/12 12:38:43;;;;;;;3.17;2.38;;;18.50;60.80;;;;;;5044468;28;20187;-68
2022/10/12 12:41:19;;;;;;;3.55;2.50;;;18.50;60.60;;;;;;5054132;28;20266;-67
2022/10/12 12:43:51;;;;;;;4.15;2.90;;;18.60;60.50;;;;;;5039269;28;20182;-69
2022/10/12 12:46:16;;;;;;;4.82;3.45;;;18.50;60.30;;;;;;5056517;28;20582;-70
2022/10/12 12:48:42;;;;;;;3.97;2.78;;;18.60;60.20;;;;;;5055905;28;20653;-69
2022/10/12 12:51:09;;;;;;;2.88;2.58;;;18.50;60.20;;;;;;5056122;28;20211;-69
2022/10/12 12:53:35;;;;;;;4.45;2.83;;;18.50;60.40;;;;;;5055303;28;20648;-68
2022/10/12 12:56:05;;;;;;;3.78;2.60;;;18.40;61.40;;;;;;5037975;28;20171;-68
2022/10/12 12:58:38;;;;;;;3.22;2.25;;;18.40;60.70;;;;;;5038942;28;20277;-68
2022/10/12 13:01:35;;;;;;;2.85;2.58;;;18.40;60.80;;;;;;5038833;28;20175;-68